sensor_id;sensor_type;location;lat;lon;timestamp;pressure;altitude;pressure_sealevel;temperature;humidity
37648;BME280;23490;53.656;10.076;2023-12-14T00:01:12;42430.34;;;-145.95;100.00
37648;BME280;23490;53.656;10.076;2023-12-14T00:03:41;41650.50;;;-145.95;100.00
37648;BME280;23490;53.656;10.076;2023-12-14T00:06:10;42690.34;;;-145.95;100.00
37648;BME280;23490;53.656;10.076;2023-12-14T00:08:36;40610.97;;;-145.95;100.00
37648;BME280;23490;53.656;10.076;2023-12-14T00:13:30;38273.25;;;-145.95;100.00
37648;BME280;23490;53.656;10.076;2023-12-14T00:15:56;38792.59;;;-145.95;100.00
37648;BME280;23490;53.656;10.076;2023-12-14T00:18:21;39312.03;;;-145.95;100.00
37648;BME280;23490;53.656;10.076;2023-12-14T00:20:46;37494.38;;;-145.95;100.00
37648;BME280;23490;53.656;10.076;2023-12-14T00:23:13;37494.38;;;-145.95;100.00
37648;BME280;23490;53.656;10.076;2023-12-14T00:25:39;37234.78;;;-145.95;100.00
37648;BME280;23490;53.656;10.076;2023-12-14T00:28:04;36456.13;;;-145.95;100.00
37648;BME280;23490;53.656;10.076;2023-12-14T00:30:29;36975.22;;;-145.95;100.00
37648;BME280;23490;53.656;10.076;2023-12-14T00:32:55;34899.41;;;-145.95;100.00
37648;BME280;23490;53.656;10.076;2023-12-14T00:35:20;31269.81;;;-145.95;100.00
37648;BME280;23490;53.656;10.076;2023-12-14T00:37:45;32306.44;;;-145.95;100.00
37648;BME280;23490;53.656;10.076;2023-12-14T00:40:11;33084.13;;;-145.95;100.00
37648;BME280;23490;53.656;10.076;2023-12-14T00:42:36;35677.69;;;-145.95;100.00
37648;BME280;23490;53.656;10.076;2023-12-14T00:45:02;33343.38;;;-145.95;100.00
37648;BME280;23490;53.656;10.076;2023-12-14T00:47:27;32047.25;;;-145.95;100.00
37648;BME280;23490;53.656;10.076;2023-12-14T00:49:52;29715.50;;;-145.95;100.00
37648;BME280;23490;53.656;10.076;2023-12-14T00:52:18;33084.13;;;-145.95;100.00
37648;BME280;23490;53.656;10.076;2023-12-14T00:54:43;31269.81;;;-145.95;100.00
37648;BME280;23490;53.656;10.076;2023-12-14T00:57:09;33602.66;;;-145.95;100.00
37648;BME280;23490;53.656;10.076;2023-12-14T00:59:34;33343.38;;;-145.95;100.00
37648;BME280;23490;53.656;10.076;2023-12-14T01:01:59;32824.88;;;-145.95;100.00
37648;BME280;23490;53.656;10.076;2023-12-14T01:04:25;32565.66;;;-145.95;100.00
37648;BME280;23490;53.656;10.076;2023-12-14T01:06:50;32047.25;;;-145.95;100.00
37648;BME280;23490;53.656;10.076;2023-12-14T01:09:15;34380.66;;;-145.95;100.00
37648;BME280;23490;53.656;10.076;2023-12-14T01:11:41;35677.69;;;-145.95;100.00
37648;BME280;23490;53.656;10.076;2023-12-14T01:14:06;34899.41;;;-145.95;100.00
37648;BME280;23490;53.656;10.076;2023-12-14T01:16:31;34899.41;;;-145.95;100.00
37648;BME280;23490;53.656;10.076;2023-12-14T01:18:56;34899.41;;;-145.95;100.00
37648;BME280;23490;53.656;10.076;2023-12-14T01:21:22;33861.97;;;-145.95;100.00
37648;BME280;23490;53.656;10.076;2023-12-14T01:23:48;32565.66;;;-145.95;100.00
37648;BME280;23490;53.656;10.076;2023-12-14T01:26:14;34121.28;;;-145.95;100.00
37648;BME280;23490;53.656;10.076;2023-12-14T01:28:39;33861.97;;;-145.95;100.00
37648;BME280;23490;53.656;10.076;2023-12-14T01:31:05;33084.13;;;-145.95;100.00
37648;BME280;23490;53.656;10.076;2023-12-14T01:33:30;33861.97;;;-145.95;100.00
37648;BME280;23490;53.656;10.076;2023-12-14T01:35:55;33861.97;;;-145.95;100.00
37648;BME280;23490;53.656;10.076;2023-12-14T01:38:20;32565.66;;;-145.95;100.00
37648;BME280;23490;53.656;10.076;2023-12-14T01:40:46;32047.25;;;-145.95;100.00
37648;BME280;23490;53.656;10.076;2023-12-14T01:43:11;32306.44;;;-145.95;100.00
37648;BME280;23490;53.656;10.076;2023-12-14T01:45:37;30492.56;;;-145.95;100.00
37648;BME280;23490;53.656;10.076;2023-12-14T01:48:03;31788.09;;;-145.95;100.00
37648;BME280;23490;53.656;10.076;2023-12-14T01:50:29;32565.66;;;-145.95;100.00
37648;BME280;23490;53.656;10.076;2023-12-14T01:52:54;29715.50;;;-145.95;100.00
37648;BME280;23490;53.656;10.076;2023-12-14T01:55:19;32565.66;;;-145.95;100.00
37648;BME280;23490;53.656;10.076;2023-12-14T01:57:45;33343.38;;;-145.95;100.00
37648;BME280;23490;53.656;10.076;2023-12-14T02:00:18;35158.81;;;-145.95;100.00
37648;BME280;23490;53.656;10.076;2023-12-14T02:02:47;36456.13;;;-145.95;100.00
37648;BME280;23490;53.656;10.076;2023-12-14T02:05:12;35937.16;;;-145.95;100.00
37648;BME280;23490;53.656;10.076;2023-12-14T02:07:37;36975.22;;;-145.95;100.00
37648;BME280;23490;53.656;10.076;2023-12-14T02:10:03;35158.81;;;-145.95;100.00
37648;BME280;23490;53.656;10.076;2023-12-14T02:12:28;34121.28;;;-145.95;100.00
37648;BME280;23490;53.656;10.076;2023-12-14T02:14:56;34121.28;;;-145.95;100.00
37648;BME280;23490;53.656;10.076;2023-12-14T02:17:21;34121.28;;;-145.95;100.00
37648;BME280;23490;53.656;10.076;2023-12-14T02:19:47;34121.28;;;-145.95;100.00
37648;BME280;23490;53.656;10.076;2023-12-14T02:22:12;33602.66;;;-145.95;100.00
37648;BME280;23490;53.656;10.076;2023-12-14T02:24:38;32047.25;;;-145.95;100.00
37648;BME280;23490;53.656;10.076;2023-12-14T02:27:03;29974.50;;;-145.95;100.00
37648;BME280;23490;53.656;10.076;2023-12-14T02:29:28;31010.72;;;-145.95;100.00
37648;BME280;23490;53.656;10.076;2023-12-14T02:31:54;28938.59;;;-145.95;100.00
37648;BME280;23490;53.656;10.076;2023-12-14T02:34:19;29974.50;;;-145.95;100.00
37648;BME280;23490;53.656;10.076;2023-12-14T02:36:45;28420.75;;;-145.95;100.00
37648;BME280;23490;53.656;10.076;2023-12-14T02:39:11;29197.53;;;-145.95;100.00
37648;BME280;23490;53.656;10.076;2023-12-14T02:41:36;29974.50;;;-145.95;100.00
37648;BME280;23490;53.656;10.076;2023-12-14T02:44:02;31010.72;;;-145.95;100.00
37648;BME280;23490;53.656;10.076;2023-12-14T02:46:27;31269.81;;;-145.95;100.00
37648;BME280;23490;53.656;10.076;2023-12-14T02:48:52;31528.94;;;-145.95;100.00
37648;BME280;23490;53.656;10.076;2023-12-14T02:51:18;33602.66;;;-145.95;100.00
37648;BME280;23490;53.656;10.076;2023-12-14T02:53:43;34380.66;;;-145.95;100.00
37648;BME280;23490;53.656;10.076;2023-12-14T02:56:09;35937.16;;;-145.95;100.00
37648;BME280;23490;53.656;10.076;2023-12-14T02:58:35;37753.97;;;-145.95;100.00
37648;BME280;23490;53.656;10.076;2023-12-14T03:01:01;38532.91;;;-145.95;100.00
37648;BME280;23490;53.656;10.076;2023-12-14T03:03:26;39312.03;;;-145.95;100.00
37648;BME280;23490;53.656;10.076;2023-12-14T03:05:54;41910.41;;;-145.95;100.00
37648;BME280;23490;53.656;10.076;2023-12-14T03:08:20;42950.34;;;-145.95;100.00
37648;BME280;23490;53.656;10.076;2023-12-14T03:10:45;41130.69;;;-145.95;100.00
37648;BME280;23490;53.656;10.076;2023-12-14T03:13:10;40091.34;;;-145.95;100.00
37648;BME280;23490;53.656;10.076;2023-12-14T03:15:36;42690.34;;;-145.95;100.00
37648;BME280;23490;53.656;10.076;2023-12-14T03:18:01;44250.69;;;-145.95;100.00
37648;BME280;23490;53.656;10.076;2023-12-14T03:20:28;43210.38;;;-145.95;100.00
37648;BME280;23490;53.656;10.076;2023-12-14T03:22:54;42430.34;;;-145.95;100.00
37648;BME280;23490;53.656;10.076;2023-12-14T03:25:19;43990.56;;;-145.95;100.00
37648;BME280;23490;53.656;10.076;2023-12-14T03:27:44;46592.56;;;-145.95;100.00
37648;BME280;23490;53.656;10.076;2023-12-14T03:30:10;47633.94;;;-145.95;100.00
37648;BME280;23490;53.656;10.076;2023-12-14T03:32:36;48154.75;;;-145.95;100.00
37648;BME280;23490;53.656;10.076;2023-12-14T03:35:02;47113.22;;;-145.95;100.00
37648;BME280;23490;53.656;10.076;2023-12-14T03:37:27;43730.50;;;-145.95;100.00
37648;BME280;23490;53.656;10.076;2023-12-14T03:39:52;43470.41;;;-145.95;100.00
37648;BME280;23490;53.656;10.076;2023-12-14T03:42:18;41910.41;;;-145.95;100.00
37648;BME280;23490;53.656;10.076;2023-12-14T03:44:43;42170.38;;;-145.95;100.00
37648;BME280;23490;53.656;10.076;2023-12-14T03:47:08;39571.78;;;-145.95;100.00
37648;BME280;23490;53.656;10.076;2023-12-14T03:49:37;40870.81;;;-145.95;100.00
37648;BME280;23490;53.656;10.076;2023-12-14T03:52:04;41650.50;;;-145.95;100.00
37648;BME280;23490;53.656;10.076;2023-12-14T03:54:29;43730.50;;;-145.95;100.00
37648;BME280;23490;53.656;10.076;2023-12-14T03:56:54;41650.50;;;-145.95;100.00
37648;BME280;23490;53.656;10.076;2023-12-14T03:59:19;38273.25;;;-145.95;100.00
37648;BME280;23490;53.656;10.076;2023-12-14T04:01:45;38273.25;;;-145.95;100.00
37648;BME280;23490;53.656;10.076;2023-12-14T04:04:10;37494.38;;;-145.95;100.00
37648;BME280;23490;53.656;10.076;2023-12-14T04:06:35;37234.78;;;-145.95;100.00
37648;BME280;23490;53.656;10.076;2023-12-14T04:09:01;36456.13;;;-145.95;100.00
37648;BME280;23490;53.656;10.076;2023-12-14T04:11:26;37494.38;;;-145.95;100.00
37648;BME280;23490;53.656;10.076;2023-12-14T04:13:52;36456.13;;;-145.95;100.00
37648;BME280;23490;53.656;10.076;2023-12-14T04:16:22;34640.00;;;-145.95;100.00
37648;BME280;23490;53.656;10.076;2023-12-14T04:18:48;36975.22;;;-145.95;100.00
37648;BME280;23490;53.656;10.076;2023-12-14T04:21:13;36715.66;;;-145.95;100.00
37648;BME280;23490;53.656;10.076;2023-12-14T04:23:38;34899.41;;;-145.95;100.00
37648;BME280;23490;53.656;10.076;2023-12-14T04:26:04;33861.97;;;-145.95;100.00
37648;BME280;23490;53.656;10.076;2023-12-14T04:28:29;32047.25;;;-145.95;100.00
37648;BME280;23490;53.656;10.076;2023-12-14T04:30:54;30492.56;;;-145.95;100.00
37648;BME280;23490;53.656;10.076;2023-12-14T04:33:20;31269.81;;;-145.95;100.00
37648;BME280;23490;53.656;10.076;2023-12-14T04:35:45;30492.56;;;-145.95;100.00
37648;BME280;23490;53.656;10.076;2023-12-14T04:38:10;29456.50;;;-145.95;100.00
37648;BME280;23490;53.656;10.076;2023-12-14T04:40:36;29456.50;;;-145.95;100.00
37648;BME280;23490;53.656;10.076;2023-12-14T04:43:02;28679.66;;;-145.95;100.00
37648;BME280;23490;53.656;10.076;2023-12-14T04:45:27;26867.75;;;-145.95;100.00
37648;BME280;23490;53.656;10.076;2023-12-14T04:47:53;25574.16;;;-145.95;100.00
37648;BME280;23490;53.656;10.076;2023-12-14T04:50:18;25574.16;;;-145.95;100.00
37648;BME280;23490;53.656;10.076;2023-12-14T04:52:43;24798.22;;;-145.95;100.00
37648;BME280;23490;53.656;10.076;2023-12-14T04:55:09;24022.47;;;-145.95;100.00
37648;BME280;23490;53.656;10.076;2023-12-14T04:57:35;22988.41;;;-145.95;100.00
37648;BME280;23490;53.656;10.076;2023-12-14T05:00:01;22213.09;;;-145.95;100.00
37648;BME280;23490;53.656;10.076;2023-12-14T05:02:27;22213.09;;;-145.95;100.00
37648;BME280;23490;53.656;10.076;2023-12-14T05:04:52;21954.69;;;-145.95;100.00
37648;BME280;23490;53.656;10.076;2023-12-14T05:07:18;20663.00;;;-145.95;100.00
37648;BME280;23490;53.656;10.076;2023-12-14T05:09:43;19113.59;;;-145.95;100.00
37648;BME280;23490;53.656;10.076;2023-12-14T05:12:08;19113.59;;;-145.95;100.00
37648;BME280;23490;53.656;10.076;2023-12-14T05:14:34;17564.94;;;-145.95;100.00
37648;BME280;23490;53.656;10.076;2023-12-14T05:16:59;18855.44;;;-145.95;100.00
37648;BME280;23490;53.656;10.076;2023-12-14T05:19:24;18597.31;;;-145.95;100.00
37648;BME280;23490;53.656;10.076;2023-12-14T05:21:49;16532.91;;;-145.95;100.00
37648;BME280;23490;53.656;10.076;2023-12-14T05:24:15;14727.59;;;-145.95;100.00
37648;BME280;23490;53.656;10.076;2023-12-14T05:26:40;12407.94;;;-145.95;100.00
37648;BME280;23490;53.656;10.076;2023-12-14T05:29:05;12407.94;;;-145.95;100.00
37648;BME280;23490;53.656;10.076;2023-12-14T05:31:31;12150.31;;;-145.95;100.00
37648;BME280;23490;53.656;10.076;2023-12-14T05:33:57;12665.63;;;-145.95;100.00
37648;BME280;23490;53.656;10.076;2023-12-14T05:36:22;10862.44;;;-145.95;100.00
37648;BME280;23490;53.656;10.076;2023-12-14T05:38:47;9832.47;;;-145.95;100.00
37648;BME280;23490;53.656;10.076;2023-12-14T05:41:12;9317.63;;;-145.95;100.00
37648;BME280;23490;53.656;10.076;2023-12-14T05:43:38;9060.22;;;-145.95;100.00
37648;BME280;23490;53.656;10.076;2023-12-14T05:46:03;10089.94;;;-145.95;100.00
37648;BME280;23490;53.656;10.076;2023-12-14T05:48:29;10089.94;;;-145.95;100.00
37648;BME280;23490;53.656;10.076;2023-12-14T05:50:56;9832.47;;;-145.95;100.00
37648;BME280;23490;53.656;10.076;2023-12-14T05:53:21;9575.03;;;-145.95;100.00
37648;BME280;23490;53.656;10.076;2023-12-14T05:55:47;8802.84;;;-145.95;100.00
37648;BME280;23490;53.656;10.076;2023-12-14T05:58:12;8030.84;;;-145.95;100.00
37648;BME280;23490;53.656;10.076;2023-12-14T06:00:38;7259.00;;;-145.95;100.00
37648;BME280;23490;53.656;10.076;2023-12-14T06:03:05;7773.53;;;-145.95;100.00
37648;BME280;23490;53.656;10.076;2023-12-14T06:05:30;8288.16;;;-145.95;100.00
37648;BME280;23490;53.656;10.076;2023-12-14T06:07:56;7516.25;;;-145.95;100.00
37648;BME280;23490;53.656;10.076;2023-12-14T06:10:21;7773.53;;;-145.95;100.00
37648;BME280;23490;53.656;10.076;2023-12-14T06:12:47;7001.78;;;-145.95;100.00
37648;BME280;23490;53.656;10.076;2023-12-14T06:15:12;6744.56;;;-145.95;100.00
37648;BME280;23490;53.656;10.076;2023-12-14T06:17:37;6230.19;;;-145.95;100.00
37648;BME280;23490;53.656;10.076;2023-12-14T06:20:05;5973.03;;;-145.95;100.00
37648;BME280;23490;53.656;10.076;2023-12-14T06:22:33;5715.88;;;-145.95;100.00
37648;BME280;23490;53.656;10.076;2023-12-14T06:24:59;4430.50;;;-145.95;100.00
37648;BME280;23490;53.656;10.076;2023-12-14T06:27:24;4430.50;;;-145.95;100.00
37648;BME280;23490;53.656;10.076;2023-12-14T06:29:52;3659.53;;;-145.95;100.00
37648;BME280;23490;53.656;10.076;2023-12-14T06:32:17;2888.72;;;-145.95;100.00
37648;BME280;23490;53.656;10.076;2023-12-14T06:34:42;2374.94;;;-145.95;100.00
37648;BME280;23490;53.656;10.076;2023-12-14T06:37:08;2631.81;;;-145.95;100.00
37648;BME280;23490;53.656;10.076;2023-12-14T06:39:33;2631.81;;;-145.95;100.00
37648;BME280;23490;53.656;10.076;2023-12-14T06:41:58;2118.09;;;-145.95;100.00
37648;BME280;23490;53.656;10.076;2023-12-14T06:44:24;2631.81;;;-145.95;100.00
37648;BME280;23490;53.656;10.076;2023-12-14T06:46:51;3145.63;;;-145.95;100.00
37648;BME280;23490;53.656;10.076;2023-12-14T06:49:17;3145.63;;;-145.95;100.00
37648;BME280;23490;53.656;10.076;2023-12-14T06:51:42;2374.94;;;-145.95;100.00
37648;BME280;23490;53.656;10.076;2023-12-14T06:54:07;2118.09;;;-145.95;100.00
37648;BME280;23490;53.656;10.076;2023-12-14T06:56:33;2631.81;;;-145.95;100.00
37648;BME280;23490;53.656;10.076;2023-12-14T06:58:58;2631.81;;;-145.95;100.00
37648;BME280;23490;53.656;10.076;2023-12-14T07:01:23;2118.09;;;-145.95;100.00
37648;BME280;23490;53.656;10.076;2023-12-14T07:03:48;1347.66;;;-145.95;100.00
37648;BME280;23490;53.656;10.076;2023-12-14T07:06:15;1090.88;;;-145.95;100.00
37648;BME280;23490;53.656;10.076;2023-12-14T07:08:41;320.69;;;-145.95;100.00
37648;BME280;23490;53.656;10.076;2023-12-14T07:11:10;63.97;;;-145.95;100.00
37648;BME280;23490;53.656;10.076;2023-12-14T07:13:36;-192.69;;;-145.95;100.00
37648;BME280;23490;53.656;10.076;2023-12-14T07:16:06;63.97;;;-145.95;100.00
37648;BME280;23490;53.656;10.076;2023-12-14T07:18:36;577.38;;;-145.95;100.00
37648;BME280;23490;53.656;10.076;2023-12-14T07:21:02;320.69;;;-145.95;100.00
37648;BME280;23490;53.656;10.076;2023-12-14T07:23:28;320.69;;;-145.95;100.00
37648;BME280;23490;53.656;10.076;2023-12-14T07:25:54;834.13;;;-145.95;100.00
37648;BME280;23490;53.656;10.076;2023-12-14T07:28:19;1090.88;;;-145.95;100.00
37648;BME280;23490;53.656;10.076;2023-12-14T07:30:45;834.13;;;-145.95;100.00
37648;BME280;23490;53.656;10.076;2023-12-14T07:33:11;834.13;;;-145.95;100.00
37648;BME280;23490;53.656;10.076;2023-12-14T07:35:37;1090.88;;;-145.95;100.00
37648;BME280;23490;53.656;10.076;2023-12-14T07:38:02;1090.88;;;-145.95;100.00
37648;BME280;23490;53.656;10.076;2023-12-14T07:40:27;1347.66;;;-145.95;100.00
37648;BME280;23490;53.656;10.076;2023-12-14T07:42:53;577.38;;;-145.95;100.00
37648;BME280;23490;53.656;10.076;2023-12-14T07:45:19;-192.69;;;-145.95;100.00
37648;BME280;23490;53.656;10.076;2023-12-14T07:47:44;-192.69;;;-145.95;100.00
37648;BME280;23490;53.656;10.076;2023-12-14T07:50:11;63.97;;;-145.95;100.00
37648;BME280;23490;53.656;10.076;2023-12-14T07:52:37;-192.69;;;-145.95;100.00
37648;BME280;23490;53.656;10.076;2023-12-14T07:55:03;-449.34;;;-145.95;100.00
37648;BME280;23490;53.656;10.076;2023-12-14T07:57:28;63.97;;;-145.95;100.00
37648;BME280;23490;53.656;10.076;2023-12-14T07:59:53;63.97;;;-145.95;100.00
37648;BME280;23490;53.656;10.076;2023-12-14T08:02:19;63.97;;;-145.95;100.00
37648;BME280;23490;53.656;10.076;2023-12-14T08:04:44;-449.34;;;-145.95;100.00
37648;BME280;23490;53.656;10.076;2023-12-14T08:07:10;577.38;;;-145.95;100.00
37648;BME280;23490;53.656;10.076;2023-12-14T08:09:35;834.13;;;-145.95;100.00
37648;BME280;23490;53.656;10.076;2023-12-14T08:12:00;320.69;;;-145.95;100.00
37648;BME280;23490;53.656;10.076;2023-12-14T08:14:25;834.13;;;-145.95;100.00
37648;BME280;23490;53.656;10.076;2023-12-14T08:16:51;834.13;;;-145.95;100.00
37648;BME280;23490;53.656;10.076;2023-12-14T08:19:17;1347.66;;;-145.95;100.00
37648;BME280;23490;53.656;10.076;2023-12-14T08:21:42;1604.44;;;-145.95;100.00
37648;BME280;23490;53.656;10.076;2023-12-14T08:24:07;1861.25;;;-145.95;100.00
37648;BME280;23490;53.656;10.076;2023-12-14T08:26:33;2118.09;;;-145.95;100.00
37648;BME280;23490;53.656;10.076;2023-12-14T08:28:59;1604.44;;;-145.95;100.00
37648;BME280;23490;53.656;10.076;2023-12-14T08:31:24;2374.94;;;-145.95;100.00
37648;BME280;23490;53.656;10.076;2023-12-14T08:33:50;3145.63;;;-145.95;100.00
37648;BME280;23490;53.656;10.076;2023-12-14T08:36:17;3402.56;;;-145.95;100.00
37648;BME280;23490;53.656;10.076;2023-12-14T08:38:42;4173.50;;;-145.95;100.00
37648;BME280;23490;53.656;10.076;2023-12-14T08:41:08;4173.50;;;-145.95;100.00
37648;BME280;23490;53.656;10.076;2023-12-14T08:43:33;4173.50;;;-145.95;100.00
37648;BME280;23490;53.656;10.076;2023-12-14T08:45:58;3916.50;;;-145.95;100.00
37648;BME280;23490;53.656;10.076;2023-12-14T08:48:24;4944.59;;;-145.95;100.00
37648;BME280;23490;53.656;10.076;2023-12-14T08:50:49;5458.78;;;-145.95;100.00
37648;BME280;23490;53.656;10.076;2023-12-14T08:53:15;5973.03;;;-145.95;100.00
37648;BME280;23490;53.656;10.076;2023-12-14T08:55:40;5973.03;;;-145.95;100.00
37648;BME280;23490;53.656;10.076;2023-12-14T08:58:05;7001.78;;;-145.95;100.00
37648;BME280;23490;53.656;10.076;2023-12-14T09:00:31;7259.00;;;-145.95;100.00
37648;BME280;23490;53.656;10.076;2023-12-14T09:02:56;7773.53;;;-145.95;100.00
37648;BME280;23490;53.656;10.076;2023-12-14T09:05:21;7001.78;;;-145.95;100.00
37648;BME280;23490;53.656;10.076;2023-12-14T09:07:49;8030.84;;;-145.95;100.00
37648;BME280;23490;53.656;10.076;2023-12-14T09:10:15;8030.84;;;-145.95;100.00
37648;BME280;23490;53.656;10.076;2023-12-14T09:12:40;9575.03;;;-145.95;100.00
37648;BME280;23490;53.656;10.076;2023-12-14T09:15:06;10347.41;;;-145.95;100.00
37648;BME280;23490;53.656;10.076;2023-12-14T09:17:31;10089.94;;;-145.95;100.00
37648;BME280;23490;53.656;10.076;2023-12-14T09:20:00;9060.22;;;-145.95;100.00
37648;BME280;23490;53.656;10.076;2023-12-14T09:22:26;9832.47;;;-145.95;100.00
37648;BME280;23490;53.656;10.076;2023-12-14T09:24:52;11377.53;;;-145.95;100.00
37648;BME280;23490;53.656;10.076;2023-12-14T09:27:17;10862.44;;;-145.95;100.00
37648;BME280;23490;53.656;10.076;2023-12-14T09:29:43;10604.91;;;-145.95;100.00
37648;BME280;23490;53.656;10.076;2023-12-14T09:32:08;11892.69;;;-145.95;100.00
37648;BME280;23490;53.656;10.076;2023-12-14T09:34:34;9832.47;;;-145.95;100.00
37648;BME280;23490;53.656;10.076;2023-12-14T09:36:59;10862.44;;;-145.95;100.00
37648;BME280;23490;53.656;10.076;2023-12-14T09:39:24;11119.97;;;-145.95;100.00
37648;BME280;23490;53.656;10.076;2023-12-14T09:41:50;12665.63;;;-145.95;100.00
37648;BME280;23490;53.656;10.076;2023-12-14T09:44:16;13696.44;;;-145.95;100.00
37648;BME280;23490;53.656;10.076;2023-12-14T09:46:42;13696.44;;;-145.95;100.00
37648;BME280;23490;53.656;10.076;2023-12-14T09:49:15;14211.97;;;-145.95;100.00
37648;BME280;23490;53.656;10.076;2023-12-14T09:51:40;13438.72;;;-145.95;100.00
37648;BME280;23490;53.656;10.076;2023-12-14T09:54:06;14985.44;;;-145.95;100.00
37648;BME280;23490;53.656;10.076;2023-12-14T09:56:31;15759.09;;;-145.95;100.00
37648;BME280;23490;53.656;10.076;2023-12-14T09:58:57;17048.88;;;-145.95;100.00
37648;BME280;23490;53.656;10.076;2023-12-14T10:01:24;16790.88;;;-145.95;100.00
37648;BME280;23490;53.656;10.076;2023-12-14T10:04:11;17564.94;;;-145.95;100.00
37648;BME280;23490;53.656;10.076;2023-12-14T10:06:38;17048.88;;;-145.95;100.00
37648;BME280;23490;53.656;10.076;2023-12-14T10:09:04;20146.44;;;-145.95;100.00
37648;BME280;23490;53.656;10.076;2023-12-14T10:11:33;21179.59;;;-145.95;100.00
37648;BME280;23490;53.656;10.076;2023-12-14T10:13:59;21696.31;;;-145.95;100.00
37648;BME280;23490;53.656;10.076;2023-12-14T10:16:32;21179.59;;;-145.95;100.00
37648;BME280;23490;53.656;10.076;2023-12-14T10:18:58;22213.09;;;-145.95;100.00
37648;BME280;23490;53.656;10.076;2023-12-14T10:21:25;22729.97;;;-145.95;100.00
37648;BME280;23490;53.656;10.076;2023-12-14T10:23:51;23505.41;;;-145.95;100.00
37648;BME280;23490;53.656;10.076;2023-12-14T10:26:17;24798.22;;;-145.95;100.00
37648;BME280;23490;53.656;10.076;2023-12-14T10:28:42;23505.41;;;-145.95;100.00
37648;BME280;23490;53.656;10.076;2023-12-14T10:31:09;23246.91;;;-145.95;100.00
37648;BME280;23490;53.656;10.076;2023-12-14T10:33:35;22471.53;;;-145.95;100.00
37648;BME280;23490;53.656;10.076;2023-12-14T10:36:01;19113.59;;;-145.95;100.00
37648;BME280;23490;53.656;10.076;2023-12-14T10:38:29;20146.44;;;-145.95;100.00
37648;BME280;23490;53.656;10.076;2023-12-14T10:40:55;21954.69;;;-145.95;100.00
37648;BME280;23490;53.656;10.076;2023-12-14T10:43:22;22988.41;;;-145.95;100.00
37648;BME280;23490;53.656;10.076;2023-12-14T10:45:47;23763.94;;;-145.95;100.00
37648;BME280;23490;53.656;10.076;2023-12-14T10:48:13;22988.41;;;-145.95;100.00
37648;BME280;23490;53.656;10.076;2023-12-14T10:50:42;26091.53;;;-145.95;100.00
37648;BME280;23490;53.656;10.076;2023-12-14T10:53:07;24798.22;;;-145.95;100.00
37648;BME280;23490;53.656;10.076;2023-12-14T10:55:38;23505.41;;;-145.95;100.00
37648;BME280;23490;53.656;10.076;2023-12-14T10:58:05;23505.41;;;-145.95;100.00
37648;BME280;23490;53.656;10.076;2023-12-14T11:00:31;26091.53;;;-145.95;100.00
37648;BME280;23490;53.656;10.076;2023-12-14T11:02:57;25315.47;;;-145.95;100.00
37648;BME280;23490;53.656;10.076;2023-12-14T11:05:23;22988.41;;;-145.95;100.00
37648;BME280;23490;53.656;10.076;2023-12-14T11:07:56;22213.09;;;-145.95;100.00
37648;BME280;23490;53.656;10.076;2023-12-14T11:10:36;24281.03;;;-145.95;100.00
37648;BME280;23490;53.656;10.076;2023-12-14T11:13:04;27126.53;;;-145.95;100.00
37648;BME280;23490;53.656;10.076;2023-12-14T11:15:34;26609.00;;;-145.95;100.00
37648;BME280;23490;53.656;10.076;2023-12-14T11:20:51;24539.63;;;-145.95;100.00
37648;BME280;23490;53.656;10.076;2023-12-14T11:25:52;25315.47;;;-145.95;100.00
37648;BME280;23490;53.656;10.076;2023-12-14T11:28:19;27903.03;;;-145.95;100.00
37648;BME280;23490;53.656;10.076;2023-12-14T11:30:44;26867.75;;;-145.95;100.00
37648;BME280;23490;53.656;10.076;2023-12-14T11:33:13;26867.75;;;-145.95;100.00
37648;BME280;23490;53.656;10.076;2023-12-14T11:35:39;26867.75;;;-145.95;100.00
37648;BME280;23490;53.656;10.076;2023-12-14T11:38:05;27903.03;;;-145.95;100.00
37648;BME280;23490;53.656;10.076;2023-12-14T11:40:36;26867.75;;;-145.95;100.00
37648;BME280;23490;53.656;10.076;2023-12-14T11:43:02;28938.59;;;-145.95;100.00
37648;BME280;23490;53.656;10.076;2023-12-14T11:45:36;29197.53;;;-145.95;100.00
37648;BME280;23490;53.656;10.076;2023-12-14T11:48:06;30233.53;;;-145.95;100.00
37648;BME280;23490;53.656;10.076;2023-12-14T11:50:32;29974.50;;;-145.95;100.00
37648;BME280;23490;53.656;10.076;2023-12-14T11:53:02;29715.50;;;-145.95;100.00
37648;BME280;23490;53.656;10.076;2023-12-14T11:55:29;28161.88;;;-145.95;100.00
37648;BME280;23490;53.656;10.076;2023-12-14T11:57:55;27644.19;;;-145.95;100.00
37648;BME280;23490;53.656;10.076;2023-12-14T12:00:25;30492.56;;;-145.95;100.00
37648;BME280;23490;53.656;10.076;2023-12-14T12:02:51;29715.50;;;-145.95;100.00
37648;BME280;23490;53.656;10.076;2023-12-14T12:05:17;29197.53;;;-145.95;100.00
37648;BME280;23490;53.656;10.076;2023-12-14T12:07:47;29974.50;;;-145.95;100.00
37648;BME280;23490;53.656;10.076;2023-12-14T12:10:12;32565.66;;;-145.95;100.00
37648;BME280;23490;53.656;10.076;2023-12-14T12:12:38;33602.66;;;-145.95;100.00
37648;BME280;23490;53.656;10.076;2023-12-14T12:15:04;31528.94;;;-145.95;100.00
37648;BME280;23490;53.656;10.076;2023-12-14T12:17:29;32306.44;;;-145.95;100.00
37648;BME280;23490;53.656;10.076;2023-12-14T12:19:57;34121.28;;;-145.95;100.00
37648;BME280;23490;53.656;10.076;2023-12-14T12:22:22;30751.63;;;-145.95;100.00
37648;BME280;23490;53.656;10.076;2023-12-14T12:24:48;30751.63;;;-145.95;100.00